createdAt,value
2018-08-08T00:00:42.234Z,27.49
2018-08-08T00:01:42.381Z,27.45
2018-08-08T00:02:42.609Z,27.53
2018-08-08T00:03:42.708Z,27.50
2018-08-08T00:04:42.848Z,27.53
2018-08-08T00:05:42.994Z,27.52
2018-08-08T00:06:43.143Z,27.58
2018-08-08T00:07:43.291Z,27.70
2018-08-08T00:08:43.434Z,27.61
2018-08-08T00:09:43.575Z,27.52
2018-08-08T00:10:43.742Z,27.54
2018-08-08T00:11:43.880Z,27.57
2018-08-08T00:12:44.025Z,27.58
2018-08-08T00:13:44.171Z,27.61
2018-08-08T00:14:44.329Z,27.66
2018-08-08T00:15:44.467Z,27.64
2018-08-08T00:16:44.609Z,27.66
2018-08-08T00:17:45.471Z,27.72
2018-08-08T00:18:44.896Z,27.64
2018-08-08T00:19:45.044Z,27.64
2018-08-08T00:20:45.189Z,27.66
2018-08-08T00:21:45.360Z,27.66
2018-08-08T00:22:45.506Z,27.63
2018-08-08T00:23:45.643Z,27.61
2018-08-08T00:24:45.804Z,27.64
2018-08-08T00:25:45.945Z,27.58
2018-08-08T00:26:46.134Z,27.60
2018-08-08T00:27:46.229Z,27.58
2018-08-08T00:28:46.364Z,27.58
2018-08-08T00:29:46.507Z,27.57
2018-08-08T00:30:46.660Z,27.57
2018-08-08T00:31:46.800Z,27.58
2018-08-08T00:32:46.969Z,27.52
2018-08-08T00:33:47.108Z,27.52
2018-08-08T00:34:47.253Z,27.52
2018-08-08T00:35:47.437Z,27.49
2018-08-08T00:36:47.581Z,27.52
2018-08-08T00:37:47.721Z,27.58
2018-08-08T00:38:47.892Z,27.63
2018-08-08T00:39:48.033Z,27.52
2018-08-08T00:40:48.180Z,27.52
2018-08-08T00:41:48.326Z,27.58
2018-08-08T00:42:48.494Z,27.57
2018-08-08T00:43:48.642Z,27.54
2018-08-08T00:44:48.781Z,27.49
2018-08-08T00:45:48.918Z,27.50
2018-08-08T00:46:49.079Z,27.45
2018-08-08T00:47:49.223Z,27.50
2018-08-08T00:48:49.361Z,27.44
2018-08-08T00:49:49.556Z,27.49
2018-08-08T00:50:49.735Z,27.37
2018-08-08T00:51:49.879Z,27.37
2018-08-08T00:52:50.021Z,27.40
2018-08-08T00:53:50.184Z,27.38
2018-08-08T00:54:50.316Z,27.34
2018-08-08T00:55:50.460Z,27.26
2018-08-08T00:56:50.604Z,27.27
2018-08-08T00:57:50.744Z,27.25
2018-08-08T00:58:50.898Z,27.23
2018-08-08T00:59:51.044Z,27.17
2018-08-08T01:00:51.192Z,27.23
2018-08-08T01:01:51.326Z,27.07
2018-08-08T01:02:52.338Z,27.13
2018-08-08T01:03:51.666Z,27.05
2018-08-08T01:04:51.805Z,27.12
2018-08-08T01:05:51.973Z,27.15
2018-08-08T01:06:52.116Z,27.13
2018-08-08T01:07:52.256Z,27.04
2018-08-08T01:08:52.474Z,27.20
2018-08-08T01:09:52.564Z,27.17
2018-08-08T01:10:52.708Z,27.10
2018-08-08T01:11:52.847Z,27.12
2018-08-08T01:12:52.987Z,27.10
2018-08-08T01:13:53.152Z,27.03
2018-08-08T01:14:53.288Z,27.01
2018-08-08T01:15:53.432Z,26.90
2018-08-08T01:16:53.569Z,26.83
2018-08-08T01:17:53.754Z,27.01
2018-08-08T01:18:53.895Z,26.88
2018-08-08T01:19:54.044Z,26.88
2018-08-08T01:20:54.219Z,26.83
2018-08-08T01:21:54.356Z,26.86
2018-08-08T01:22:54.498Z,26.71
2018-08-08T01:23:54.643Z,26.85
2018-08-08T01:24:54.820Z,26.80
2018-08-08T01:25:54.957Z,26.73
2018-08-08T01:26:55.100Z,26.80
2018-08-08T01:27:55.243Z,26.86
2018-08-08T01:28:55.379Z,26.79
2018-08-08T01:29:55.517Z,26.80
2018-08-08T01:30:55.660Z,26.75
2018-08-08T01:31:55.801Z,26.85
2018-08-08T01:32:55.987Z,26.80
2018-08-08T01:33:56.125Z,26.85
2018-08-08T01:34:56.269Z,26.70
2018-08-08T01:35:56.412Z,26.75
2018-08-08T01:36:56.587Z,26.75
2018-08-08T01:37:56.720Z,26.64
2018-08-08T01:38:56.866Z,26.65
2018-08-08T01:39:57.021Z,26.67
2018-08-08T01:40:57.163Z,26.70
2018-08-08T01:41:57.307Z,26.58
2018-08-08T01:42:57.473Z,26.63
2018-08-08T01:43:57.614Z,26.64
2018-08-08T01:44:57.772Z,26.64
2018-08-08T01:45:58.100Z,26.51
2018-08-08T01:46:58.053Z,26.56
2018-08-08T01:47:58.198Z,26.46
2018-08-08T01:48:58.457Z,26.33
2018-08-08T01:49:58.505Z,26.16
2018-08-08T01:50:58.648Z,26.01
2018-08-08T01:51:58.787Z,25.78
2018-08-08T01:52:58.977Z,25.74
2018-08-08T01:53:59.110Z,25.67
2018-08-08T01:54:59.261Z,25.49
2018-08-08T01:55:59.404Z,25.51
2018-08-08T01:56:59.566Z,25.52
2018-08-08T01:57:59.705Z,25.67
2018-08-08T01:58:59.855Z,25.77
2018-08-08T01:59:59.981Z,25.75
2018-08-08T02:01:00.125Z,25.75
2018-08-08T02:02:00.266Z,25.74
2018-08-08T02:03:00.434Z,25.83
2018-08-08T02:04:00.583Z,25.96
2018-08-08T02:05:00.729Z,25.89
2018-08-08T02:06:00.900Z,26.00
2018-08-08T02:07:01.038Z,26.03
2018-08-08T02:08:01.183Z,26.05
2018-08-08T02:09:01.346Z,26.03
2018-08-08T02:10:01.491Z,25.98
2018-08-08T02:11:01.633Z,26.08
2018-08-08T02:12:01.774Z,26.11
2018-08-08T02:13:01.929Z,25.96
2018-08-08T02:14:02.071Z,26.15
2018-08-08T02:15:02.211Z,26.16
2018-08-08T02:16:02.379Z,26.23
2018-08-08T02:17:02.517Z,26.15
2018-08-08T02:18:02.658Z,26.15
2018-08-08T02:19:02.825Z,26.19
2018-08-08T02:20:02.964Z,26.23
2018-08-08T02:21:03.106Z,26.08
2018-08-08T02:22:03.278Z,26.26
2018-08-08T02:23:03.414Z,26.07
2018-08-08T02:24:03.553Z,26.05
2018-08-08T02:25:03.735Z,26.15
2018-08-08T02:26:03.928Z,26.07
2018-08-08T02:27:04.056Z,26.08
2018-08-08T02:28:04.201Z,26.01
2018-08-08T02:29:04.339Z,25.96
2018-08-08T02:30:04.491Z,26.01
2018-08-08T02:31:04.738Z,26.04
2018-08-08T02:32:04.725Z,26.01
2018-08-08T02:33:04.868Z,25.95
2018-08-08T02:34:05.025Z,25.95
2018-08-08T02:35:05.167Z,25.93
2018-08-08T02:36:05.312Z,25.95
2018-08-08T02:37:05.479Z,25.95
2018-08-08T02:38:05.612Z,25.89
2018-08-08T02:39:05.753Z,25.93
2018-08-08T02:40:05.895Z,25.85
2018-08-08T02:41:06.063Z,25.89
2018-08-08T02:42:06.195Z,25.82
2018-08-08T02:43:06.329Z,25.73
2018-08-08T02:44:06.477Z,25.71
2018-08-08T02:45:06.625Z,25.71
2018-08-08T02:46:06.768Z,25.73
2018-08-08T02:47:06.909Z,25.75
2018-08-08T02:48:07.053Z,25.67
2018-08-08T02:49:07.198Z,25.68
2018-08-08T02:50:07.338Z,25.67
2018-08-08T02:51:07.479Z,25.68
2018-08-08T02:52:07.672Z,25.71
2018-08-08T02:53:07.792Z,25.66
2018-08-08T02:54:07.936Z,25.67
2018-08-08T02:55:08.072Z,25.61
2018-08-08T02:56:08.231Z,25.51
2018-08-08T02:57:08.368Z,25.38
2018-08-08T02:58:08.552Z,25.36
2018-08-08T02:59:08.655Z,25.49
2018-08-08T03:00:08.825Z,25.40
2018-08-08T03:01:08.965Z,25.27
2018-08-08T03:02:09.109Z,25.22
2018-08-08T03:03:09.277Z,25.18
2018-08-08T03:04:09.412Z,25.00
2018-08-08T03:05:09.575Z,25.01
2018-08-08T03:06:09.696Z,25.06
2018-08-08T03:07:09.862Z,25.08
2018-08-08T03:08:09.994Z,25.12
2018-08-08T03:09:10.138Z,25.19
2018-08-08T03:10:10.280Z,25.33
2018-08-08T03:11:10.439Z,25.31
2018-08-08T03:12:10.577Z,25.33
2018-08-08T03:13:10.741Z,25.34
2018-08-08T03:14:10.882Z,25.31
2018-08-08T03:15:11.027Z,25.43
2018-08-08T03:16:11.165Z,25.37
2018-08-08T03:17:11.337Z,25.46
2018-08-08T03:18:11.489Z,25.43
2018-08-08T03:19:11.620Z,25.51
2018-08-08T03:20:11.782Z,25.48
2018-08-08T03:21:11.925Z,25.49
2018-08-08T03:22:12.067Z,25.51
2018-08-08T03:23:12.214Z,25.49
2018-08-08T03:24:12.371Z,25.52
2018-08-08T03:25:12.509Z,25.41
2018-08-08T03:26:12.684Z,25.43
2018-08-08T03:27:12.794Z,25.34
2018-08-08T03:28:12.942Z,25.38
2018-08-08T03:29:13.078Z,25.36
2018-08-08T03:30:13.220Z,25.31
2018-08-08T03:31:13.365Z,25.31
2018-08-08T03:32:13.529Z,25.38
2018-08-08T03:33:13.673Z,25.34
2018-08-08T03:34:13.811Z,25.34
2018-08-08T03:35:13.975Z,25.37
2018-08-08T03:36:14.112Z,25.33
2018-08-08T03:37:14.255Z,25.34
2018-08-08T03:38:14.395Z,25.43
2018-08-08T03:39:14.534Z,25.49
2018-08-08T03:40:14.676Z,25.46
2018-08-08T03:41:14.820Z,25.38
2018-08-08T03:42:15.034Z,25.31
2018-08-08T03:43:15.136Z,25.36
2018-08-08T03:44:15.281Z,25.33
2018-08-08T03:45:15.430Z,25.36
2018-08-08T03:46:15.584Z,25.37
2018-08-08T03:47:15.723Z,25.27
2018-08-08T03:48:15.867Z,25.36
2018-08-08T03:49:16.012Z,25.28
2018-08-08T03:50:16.149Z,25.28
2018-08-08T03:51:16.294Z,25.34
2018-08-08T03:52:16.440Z,25.23
2018-08-08T03:53:16.650Z,25.33
2018-08-08T03:54:16.740Z,25.34
2018-08-08T03:55:16.888Z,25.31
2018-08-08T03:56:17.027Z,25.31
2018-08-08T03:57:17.183Z,25.27
2018-08-08T03:58:17.326Z,25.38
2018-08-08T03:59:17.462Z,25.31
2018-08-08T04:00:17.625Z,25.33
2018-08-08T04:01:17.764Z,25.36
2018-08-08T04:02:17.909Z,25.36
2018-08-08T04:03:18.071Z,25.33
2018-08-08T04:04:18.205Z,25.36
2018-08-08T04:05:18.380Z,25.36
2018-08-08T04:06:18.522Z,25.34
2018-08-08T04:07:18.666Z,25.31
2018-08-08T04:08:18.806Z,25.36
2018-08-08T04:09:18.978Z,25.30
2018-08-08T04:10:19.085Z,25.30
2018-08-08T04:11:19.222Z,25.31
2018-08-08T04:12:19.376Z,25.36
2018-08-08T04:13:19.516Z,25.30
2018-08-08T04:14:19.661Z,25.28
2018-08-08T04:15:19.834Z,25.38
2018-08-08T04:16:19.974Z,25.34
2018-08-08T04:17:20.113Z,25.30
2018-08-08T04:18:20.271Z,25.36
2018-08-08T04:19:20.432Z,25.38
2018-08-08T04:20:20.569Z,25.38
2018-08-08T04:21:20.709Z,25.18
2018-08-08T04:22:20.854Z,24.89
2018-08-08T04:23:21.021Z,24.71
2018-08-08T04:24:21.181Z,24.47
2018-08-08T04:25:21.301Z,24.08
2018-08-08T04:26:21.463Z,24.04
2018-08-08T04:27:21.610Z,23.81
2018-08-08T04:28:21.762Z,23.94
2018-08-08T04:29:21.901Z,23.92
2018-08-08T04:30:22.063Z,23.97
2018-08-08T04:31:22.205Z,23.94
2018-08-08T04:32:22.355Z,24.06
2018-08-08T04:33:22.485Z,24.21
2018-08-08T04:34:22.662Z,24.36
2018-08-08T04:35:22.797Z,24.45
2018-08-08T04:36:22.936Z,24.48
2018-08-08T04:37:23.081Z,24.53
2018-08-08T04:38:23.246Z,24.58
2018-08-08T04:39:23.386Z,24.55
2018-08-08T04:40:23.524Z,24.62
2018-08-08T04:41:23.689Z,24.66
2018-08-08T04:42:23.824Z,24.74
2018-08-08T04:43:23.983Z,24.81
2018-08-08T04:44:24.122Z,24.89
2018-08-08T04:45:24.324Z,24.85
2018-08-08T04:46:24.425Z,24.91
2018-08-08T04:47:24.564Z,24.97
2018-08-08T04:48:24.711Z,25.03
2018-08-08T04:49:24.882Z,25.04
2018-08-08T04:50:25.021Z,25.04
2018-08-08T04:51:25.164Z,25.16
2018-08-08T04:52:25.305Z,25.21
2018-08-08T04:53:25.482Z,25.36
2018-08-08T04:54:25.622Z,25.37
2018-08-08T04:55:25.778Z,25.45
2018-08-08T04:56:25.948Z,25.56
2018-08-08T04:57:26.048Z,25.48
2018-08-08T04:58:26.193Z,25.63
2018-08-08T04:59:26.347Z,25.55
2018-08-08T05:00:26.483Z,25.51
2018-08-08T05:01:26.621Z,25.58
2018-08-08T05:02:26.766Z,25.56
2018-08-08T05:03:26.924Z,25.61
2018-08-08T05:04:27.061Z,25.59
2018-08-08T05:05:27.202Z,25.73
2018-08-08T05:06:27.365Z,25.71
2018-08-08T05:07:27.498Z,25.73
2018-08-08T05:08:27.642Z,25.77
2018-08-08T05:09:27.781Z,25.74
2018-08-08T05:10:27.943Z,25.90
2018-08-08T05:11:28.079Z,25.92
2018-08-08T05:12:28.221Z,26.00
2018-08-08T05:13:28.375Z,26.03
2018-08-08T05:14:28.515Z,25.98
2018-08-08T05:15:28.656Z,26.03
2018-08-08T05:16:28.804Z,25.95
2018-08-08T05:17:28.990Z,26.04
2018-08-08T05:18:29.124Z,26.04
2018-08-08T05:19:29.252Z,26.16
2018-08-08T05:20:29.467Z,26.05
2018-08-08T05:21:29.545Z,26.03
2018-08-08T05:22:29.686Z,25.90
2018-08-08T05:23:29.830Z,25.77
2018-08-08T05:24:29.996Z,25.64
2018-08-08T05:25:30.131Z,25.64
2018-08-08T05:26:30.280Z,25.68
2018-08-08T05:27:30.417Z,25.61
2018-08-08T05:28:30.554Z,25.59
2018-08-08T05:29:30.697Z,25.68
2018-08-08T05:30:30.868Z,25.67
2018-08-08T05:31:31.008Z,25.70
2018-08-08T05:32:31.149Z,25.53
2018-08-08T05:33:31.325Z,25.55
2018-08-08T05:34:31.463Z,25.37
2018-08-08T05:35:31.608Z,25.33
2018-08-08T05:36:31.755Z,25.21
2018-08-08T05:37:31.895Z,25.01
2018-08-08T05:38:32.038Z,25.03
2018-08-08T05:39:32.203Z,24.94
2018-08-08T05:40:32.342Z,24.90
2018-08-08T05:41:32.485Z,24.86
2018-08-08T05:42:32.628Z,24.75
2018-08-08T05:43:32.780Z,24.71
2018-08-08T05:44:32.918Z,24.79
2018-08-08T05:45:33.062Z,24.81
2018-08-08T05:46:33.223Z,24.71
2018-08-08T05:47:33.362Z,24.63
2018-08-08T05:48:33.507Z,24.76
2018-08-08T05:49:33.681Z,24.82
2018-08-08T05:50:33.815Z,24.84
2018-08-08T05:51:33.957Z,24.76
2018-08-08T05:52:34.104Z,24.84
2018-08-08T05:53:34.268Z,24.70
2018-08-08T05:54:34.411Z,24.60
2018-08-08T05:55:34.560Z,24.58
2018-08-08T05:56:34.706Z,24.48
2018-08-08T05:57:34.865Z,24.40
2018-08-08T05:58:35.084Z,24.48
2018-08-08T05:59:35.102Z,24.45
2018-08-08T06:00:35.267Z,24.44
2018-08-08T06:01:35.457Z,24.48
2018-08-08T06:02:35.550Z,24.47
2018-08-08T06:03:35.722Z,24.48
2018-08-08T06:04:35.856Z,24.44
2018-08-08T06:05:36.023Z,24.41
2018-08-08T06:06:36.154Z,24.45
2018-08-08T06:07:36.298Z,24.55
2018-08-08T06:08:36.472Z,24.70
2018-08-08T06:09:36.605Z,24.62
2018-08-08T06:10:36.747Z,24.70
2018-08-08T06:11:36.941Z,24.63
2018-08-08T06:12:37.080Z,24.70
2018-08-08T06:13:37.221Z,24.75
2018-08-08T06:14:37.359Z,24.75
2018-08-08T06:15:37.545Z,24.75
2018-08-08T06:16:37.668Z,24.76
2018-08-08T06:17:37.814Z,24.84
2018-08-08T06:18:37.979Z,24.93
2018-08-08T06:19:38.109Z,25.01
2018-08-08T06:20:38.256Z,25.06
2018-08-08T06:21:38.401Z,25.09
2018-08-08T06:22:38.574Z,25.15
2018-08-08T06:23:38.696Z,25.27
2018-08-08T06:24:38.839Z,25.36
2018-08-08T06:25:38.977Z,25.46
2018-08-08T06:26:39.138Z,25.53
2018-08-08T06:27:39.281Z,25.55
2018-08-08T06:28:39.418Z,25.67
2018-08-08T06:29:39.560Z,25.59
2018-08-08T06:30:39.779Z,25.63
2018-08-08T06:31:39.872Z,25.64
2018-08-08T06:32:40.014Z,25.67
2018-08-08T06:33:40.174Z,25.71
2018-08-08T06:34:40.323Z,25.82
2018-08-08T06:35:40.455Z,25.82
2018-08-08T06:36:40.601Z,25.95
2018-08-08T06:37:40.758Z,25.98
2018-08-08T06:38:40.895Z,26.00
2018-08-08T06:39:41.036Z,26.03
2018-08-08T06:40:41.179Z,26.10
2018-08-08T06:41:41.329Z,26.12
2018-08-08T06:42:41.473Z,26.12
2018-08-08T06:43:41.635Z,26.16
2018-08-08T06:44:41.756Z,26.15
2018-08-08T06:45:41.928Z,26.20
2018-08-08T06:46:42.076Z,26.19
2018-08-08T06:47:42.212Z,26.19
2018-08-08T06:48:42.368Z,26.12
2018-08-08T06:49:42.510Z,26.16
2018-08-08T06:50:42.649Z,26.15
2018-08-08T06:51:42.806Z,26.07
2018-08-08T06:52:42.944Z,25.96
2018-08-08T06:53:43.088Z,25.96
2018-08-08T06:54:43.238Z,25.86
2018-08-08T06:55:43.398Z,26.00
2018-08-08T06:56:43.540Z,26.00
2018-08-08T06:57:43.682Z,26.10
2018-08-08T06:58:43.842Z,26.01
2018-08-08T06:59:44.037Z,26.11
2018-08-08T07:00:44.128Z,26.15
2018-08-08T07:01:44.289Z,26.16
2018-08-08T07:02:44.427Z,26.16
2018-08-08T07:03:44.573Z,26.16
2018-08-08T07:04:44.716Z,26.20
2018-08-08T07:05:44.893Z,26.27
2018-08-08T07:06:45.029Z,26.24
2018-08-08T07:07:45.175Z,26.31
2018-08-08T07:08:45.320Z,26.30
2018-08-08T07:09:45.528Z,26.36
2018-08-08T07:10:45.640Z,26.30
2018-08-08T07:11:45.782Z,26.33
2018-08-08T07:12:45.926Z,26.42
2018-08-08T07:13:46.074Z,26.45
2018-08-08T07:14:46.213Z,26.46
2018-08-08T07:15:46.357Z,26.30
2018-08-08T07:16:46.494Z,26.43
2018-08-08T07:17:46.631Z,26.42
2018-08-08T07:18:46.773Z,26.48
2018-08-08T07:19:46.967Z,26.60
2018-08-08T07:20:47.061Z,26.53
2018-08-08T07:21:47.200Z,26.57
2018-08-08T07:22:47.344Z,26.63
2018-08-08T07:23:47.541Z,26.52
2018-08-08T07:24:47.673Z,26.48
2018-08-08T07:25:47.816Z,26.58
2018-08-08T07:26:47.987Z,26.58
2018-08-08T07:27:48.139Z,26.57
2018-08-08T07:28:48.273Z,26.56
2018-08-08T07:29:48.432Z,26.53
2018-08-08T07:30:48.573Z,26.45
2018-08-08T07:31:48.716Z,26.33
2018-08-08T07:32:48.869Z,26.28
2018-08-08T07:33:49.051Z,26.31
2018-08-08T07:34:49.191Z,26.26
2018-08-08T07:35:49.334Z,26.31
2018-08-08T07:36:49.493Z,26.27
2018-08-08T07:37:49.633Z,26.33
2018-08-08T07:38:49.773Z,26.41
2018-08-08T07:39:49.954Z,26.38
2018-08-08T07:40:50.081Z,26.39
2018-08-08T07:41:50.256Z,26.41
2018-08-08T07:42:50.390Z,26.42
2018-08-08T07:43:50.532Z,26.41
2018-08-08T07:44:50.673Z,26.33
2018-08-08T07:45:50.836Z,26.45
2018-08-08T07:46:50.972Z,26.41
2018-08-08T07:47:51.165Z,26.42
2018-08-08T07:48:51.260Z,26.41
2018-08-08T07:49:51.399Z,26.39
2018-08-08T07:50:51.542Z,26.45
2018-08-08T07:51:51.685Z,26.42
2018-08-08T07:52:51.827Z,26.46
2018-08-08T07:53:52.000Z,26.48
2018-08-08T07:54:52.137Z,26.56
2018-08-08T07:55:52.278Z,26.52
2018-08-08T07:56:52.419Z,26.53
2018-08-08T07:57:52.571Z,26.56
2018-08-08T07:58:52.693Z,26.56
2018-08-08T07:59:52.837Z,26.65
2018-08-08T08:00:52.993Z,26.71
2018-08-08T08:01:53.137Z,26.65
2018-08-08T08:02:53.304Z,26.65
2018-08-08T08:03:53.442Z,26.73
2018-08-08T08:04:53.582Z,26.65
2018-08-08T08:05:53.723Z,26.70
2018-08-08T08:06:53.877Z,26.71
2018-08-08T08:07:54.012Z,26.76
2018-08-08T08:08:54.151Z,26.82
2018-08-08T08:09:54.304Z,26.82
2018-08-08T08:10:54.446Z,26.89
2018-08-08T08:11:54.589Z,26.82
2018-08-08T08:12:54.825Z,26.85
2018-08-08T08:13:54.879Z,26.97
2018-08-08T08:14:55.017Z,26.88
2018-08-08T08:15:55.157Z,26.94
2018-08-08T08:16:55.325Z,27.03
2018-08-08T08:17:55.462Z,27.13
2018-08-08T08:18:55.603Z,27.15
2018-08-08T08:19:55.740Z,27.26
2018-08-08T08:20:55.890Z,27.32
2018-08-08T08:21:56.036Z,27.34
2018-08-08T08:22:56.181Z,27.35
2018-08-08T08:23:56.312Z,27.41
2018-08-08T08:24:56.478Z,27.37
2018-08-08T08:25:56.612Z,27.41
2018-08-08T08:26:56.778Z,27.40
2018-08-08T08:27:56.916Z,27.37
2018-08-08T08:28:57.060Z,27.47
2018-08-08T08:29:57.262Z,27.41
2018-08-08T08:30:57.357Z,27.35
2018-08-08T08:31:57.499Z,27.44
2018-08-08T08:32:57.644Z,27.45
2018-08-08T08:33:57.791Z,27.49
2018-08-08T08:34:57.943Z,27.64
2018-08-08T08:35:58.107Z,27.64
2018-08-08T08:36:58.246Z,27.78
2018-08-08T08:37:58.389Z,27.80
2018-08-08T08:38:58.533Z,27.90
2018-08-08T08:39:58.698Z,27.85
2018-08-08T08:40:58.834Z,27.88
2018-08-08T08:41:58.978Z,27.95
2018-08-08T08:42:59.121Z,28.06
2018-08-08T08:43:59.292Z,28.01
2018-08-08T08:44:59.429Z,28.05
2018-08-08T08:45:59.575Z,28.07
2018-08-08T08:46:59.745Z,28.12
2018-08-08T08:47:59.872Z,28.17
2018-08-08T08:49:00.013Z,28.16
2018-08-08T08:50:00.166Z,28.19
2018-08-08T08:51:00.302Z,28.28
2018-08-08T08:52:00.474Z,28.24
2018-08-08T08:53:00.603Z,28.20
2018-08-08T08:54:00.746Z,28.13
2018-08-08T08:55:00.887Z,28.16
2018-08-08T08:56:01.075Z,28.20
2018-08-08T08:57:01.216Z,28.16
2018-08-08T08:58:01.359Z,28.24
2018-08-08T08:59:01.502Z,28.30
2018-08-08T09:00:01.667Z,28.32
2018-08-08T09:01:01.808Z,28.43
2018-08-08T09:02:01.951Z,28.47
2018-08-08T09:03:02.103Z,28.42
2018-08-08T09:04:02.280Z,28.44
2018-08-08T09:05:02.427Z,28.43
2018-08-08T09:06:02.571Z,28.46
2018-08-08T09:07:02.708Z,28.65
2018-08-08T09:08:02.880Z,28.71
2018-08-08T09:09:03.021Z,28.83
2018-08-08T09:10:03.169Z,28.86
2018-08-08T09:11:03.312Z,28.86
2018-08-08T09:12:03.472Z,28.87
2018-08-08T09:13:03.623Z,29.02
2018-08-08T09:14:03.766Z,28.96
2018-08-08T09:15:03.929Z,28.93
2018-08-08T09:16:04.085Z,29.07
2018-08-08T09:17:04.222Z,29.13
2018-08-08T09:18:04.371Z,29.18
2018-08-08T09:19:04.514Z,29.24
2018-08-08T09:20:04.664Z,29.25
2018-08-08T09:21:04.806Z,29.28
2018-08-08T09:22:04.952Z,29.28
2018-08-08T09:23:05.094Z,29.31
2018-08-08T09:24:05.260Z,29.37
2018-08-08T09:25:05.397Z,29.22
2018-08-08T09:26:05.542Z,29.29
2018-08-08T09:27:05.694Z,29.28
2018-08-08T09:28:05.928Z,29.34
2018-08-08T09:29:05.946Z,29.33
2018-08-08T09:30:06.089Z,29.44
2018-08-08T09:31:06.258Z,29.52
2018-08-08T09:32:06.397Z,29.55
2018-08-08T09:33:06.546Z,29.62
2018-08-08T09:34:06.713Z,29.65
2018-08-08T09:35:06.844Z,29.76
2018-08-08T09:36:06.996Z,29.61
2018-08-08T09:37:07.150Z,29.63
2018-08-08T09:38:07.292Z,29.68
2018-08-08T09:39:07.432Z,29.76
2018-08-08T09:40:07.613Z,29.83
2018-08-08T09:41:07.735Z,29.91
2018-08-08T09:42:07.882Z,30.00
2018-08-08T09:43:08.024Z,30.07
2018-08-08T09:44:08.237Z,30.05
2018-08-08T09:45:08.344Z,29.91
2018-08-08T09:46:08.494Z,29.86
2018-08-08T09:47:08.637Z,29.89
2018-08-08T09:48:08.813Z,29.91
2018-08-08T09:49:08.952Z,29.92
2018-08-08T09:50:09.103Z,29.81
2018-08-08T09:51:09.250Z,29.81
2018-08-08T09:52:09.393Z,29.78
2018-08-08T09:53:09.541Z,29.83
2018-08-08T09:54:09.804Z,29.93
2018-08-08T09:55:09.849Z,29.99
2018-08-08T09:56:09.996Z,30.05
2018-08-08T09:57:10.146Z,30.10
2018-08-08T09:58:10.313Z,30.07
2018-08-08T09:59:10.453Z,30.15
2018-08-08T10:00:11.172Z,30.05
2018-08-08T10:01:10.741Z,30.14
2018-08-08T10:02:10.882Z,30.11
2018-08-08T10:03:11.034Z,30.17
2018-08-08T10:04:11.214Z,30.18
2018-08-08T10:05:11.352Z,30.13
2018-08-08T10:06:11.494Z,30.22
2018-08-08T10:07:11.641Z,30.28
2018-08-08T10:08:11.805Z,30.30
2018-08-08T10:09:11.936Z,30.39
2018-08-08T10:10:12.074Z,30.46
2018-08-08T10:11:12.224Z,30.58
2018-08-08T10:12:12.366Z,30.52
2018-08-08T10:13:12.519Z,30.56
2018-08-08T10:14:12.662Z,30.49
2018-08-08T10:15:12.824Z,30.53
2018-08-08T10:16:12.969Z,30.60
2018-08-08T10:17:13.123Z,30.65
2018-08-08T10:18:13.295Z,30.70
2018-08-08T10:19:14.177Z,30.85
2018-08-08T10:20:13.608Z,30.75
2018-08-08T10:21:13.754Z,30.70
2018-08-08T10:22:13.937Z,30.82
2018-08-08T10:23:14.109Z,30.82
2018-08-08T10:24:14.248Z,30.80
2018-08-08T10:25:14.404Z,30.82
2018-08-08T10:26:14.556Z,30.95
2018-08-08T10:27:14.709Z,31.02
2018-08-08T10:28:14.854Z,31.23
2018-08-08T10:29:14.999Z,31.24
2018-08-08T10:30:15.155Z,31.26
2018-08-08T10:31:15.302Z,31.33
2018-08-08T10:32:15.442Z,31.29
2018-08-08T10:33:15.592Z,31.27
2018-08-08T10:34:15.736Z,31.26
2018-08-08T10:35:15.914Z,31.32
2018-08-08T10:36:16.031Z,31.02
2018-08-08T10:37:16.213Z,31.02
2018-08-08T10:38:16.360Z,31.10
2018-08-08T10:39:16.543Z,31.23
2018-08-08T10:40:16.681Z,31.19
2018-08-08T10:41:16.838Z,30.85
2018-08-08T10:42:16.983Z,30.80
2018-08-08T10:43:17.129Z,30.68
2018-08-08T10:44:17.277Z,30.65
2018-08-08T10:45:17.448Z,30.85
2018-08-08T10:46:17.593Z,30.90
2018-08-08T10:47:17.750Z,31.11
2018-08-08T10:48:17.892Z,31.08
2018-08-08T10:49:18.080Z,31.11
2018-08-08T10:50:18.208Z,31.10
2018-08-08T10:51:18.349Z,31.23
2018-08-08T10:52:18.496Z,31.27
2018-08-08T10:53:18.669Z,31.22
2018-08-08T10:54:18.809Z,31.19
2018-08-08T10:55:18.956Z,31.34
2018-08-08T10:56:19.189Z,31.41
2018-08-08T10:57:19.257Z,31.27
2018-08-08T10:58:19.399Z,31.33
2018-08-08T10:59:19.542Z,31.19
2018-08-08T11:00:19.718Z,31.27
2018-08-08T11:01:19.852Z,31.26
2018-08-08T11:02:20.005Z,31.29
2018-08-08T11:03:20.152Z,31.46
2018-08-08T11:04:20.332Z,31.64
2018-08-08T11:05:20.480Z,31.68
2018-08-08T11:06:20.628Z,31.75
2018-08-08T11:07:20.785Z,31.79
2018-08-08T11:08:20.932Z,31.89
2018-08-08T11:09:21.070Z,31.91
2018-08-08T11:10:21.228Z,31.97
2018-08-08T11:11:21.370Z,31.97
2018-08-08T11:12:21.544Z,31.97
2018-08-08T11:13:21.693Z,31.98
2018-08-08T11:14:21.838Z,31.68
2018-08-08T11:15:22.004Z,31.63
2018-08-08T11:16:22.145Z,31.60
2018-08-08T11:17:22.304Z,31.64
2018-08-08T11:18:22.447Z,31.56
2018-08-08T11:19:22.597Z,31.52
2018-08-08T11:20:22.771Z,31.67
2018-08-08T11:21:22.913Z,31.76
2018-08-08T11:22:23.064Z,31.75
2018-08-08T11:23:23.234Z,31.67
2018-08-08T11:24:23.376Z,31.59
2018-08-08T11:25:23.523Z,31.52
2018-08-08T11:26:23.681Z,31.42
2018-08-08T11:27:23.878Z,31.41
2018-08-08T11:28:24.023Z,31.34
2018-08-08T11:29:24.192Z,31.33
2018-08-08T11:30:24.386Z,31.23
2018-08-08T11:31:24.494Z,31.33
2018-08-08T11:32:24.637Z,31.34
2018-08-08T11:33:24.784Z,31.27
2018-08-08T11:34:24.951Z,31.27
2018-08-08T11:35:25.101Z,31.38
2018-08-08T11:36:25.248Z,31.32
2018-08-08T11:37:25.400Z,31.54
2018-08-08T11:38:25.568Z,31.54
2018-08-08T11:39:25.715Z,31.52
2018-08-08T11:40:25.859Z,31.70
2018-08-08T11:41:26.002Z,31.91
2018-08-08T11:42:26.149Z,31.95
2018-08-08T11:43:26.293Z,31.90
2018-08-08T11:44:26.442Z,31.94
2018-08-08T11:45:26.590Z,32.04
2018-08-08T11:46:26.785Z,32.14
2018-08-08T11:47:26.908Z,32.23
2018-08-08T11:48:27.060Z,32.27
2018-08-08T11:49:27.190Z,32.21
2018-08-08T11:50:27.355Z,32.21
2018-08-08T11:51:27.494Z,31.97
2018-08-08T11:52:27.648Z,31.86
2018-08-08T11:53:27.804Z,31.68
2018-08-08T11:54:27.963Z,31.67
2018-08-08T11:55:28.110Z,31.70
2018-08-08T11:56:28.258Z,31.76
2018-08-08T11:57:28.401Z,32.01
2018-08-08T11:58:28.556Z,32.06
2018-08-08T11:59:28.699Z,32.16
2018-08-08T12:00:28.852Z,32.13
2018-08-08T12:01:28.986Z,32.13
2018-08-08T12:02:29.153Z,32.11
2018-08-08T12:03:29.303Z,32.23
2018-08-08T12:04:29.448Z,32.32
2018-08-08T12:05:29.598Z,32.51
2018-08-08T12:06:29.765Z,32.54
2018-08-08T12:07:29.902Z,32.48
2018-08-08T12:08:30.047Z,32.77
2018-08-08T12:09:30.200Z,32.75
2018-08-08T12:10:30.370Z,32.83
2018-08-08T12:11:30.507Z,32.97
2018-08-08T12:12:30.650Z,32.92
2018-08-08T12:13:30.844Z,32.97
2018-08-08T12:14:31.005Z,33.10
2018-08-08T12:15:31.152Z,33.14
2018-08-08T12:16:31.302Z,32.90
2018-08-08T12:17:31.475Z,32.73
2018-08-08T12:18:32.281Z,32.64
2018-08-08T12:19:31.844Z,32.73
2018-08-08T12:20:32.023Z,32.68
2018-08-08T12:21:32.176Z,32.50
2018-08-08T12:22:32.321Z,32.68
2018-08-08T12:23:32.464Z,32.77
2018-08-08T12:24:32.634Z,32.55
2018-08-08T12:25:32.820Z,32.61
2018-08-08T12:26:32.928Z,32.76
2018-08-08T12:27:33.072Z,32.64
2018-08-08T12:28:33.318Z,32.83
2018-08-08T12:29:33.377Z,32.85
2018-08-08T12:30:33.525Z,32.76
2018-08-08T12:31:33.710Z,32.68
2018-08-08T12:32:33.838Z,32.36
2018-08-08T12:33:33.986Z,32.09
2018-08-08T12:34:34.143Z,31.97
2018-08-08T12:35:34.346Z,31.94
2018-08-08T12:36:34.474Z,32.01
2018-08-08T12:37:34.618Z,32.11
2018-08-08T12:38:34.762Z,32.20
2018-08-08T12:39:34.913Z,32.32
2018-08-08T12:40:35.077Z,32.32
2018-08-08T12:41:35.210Z,32.41
2018-08-08T12:42:35.361Z,32.43
2018-08-08T12:43:35.501Z,32.26
2018-08-08T12:44:35.696Z,32.13
2018-08-08T12:45:35.810Z,32.06
2018-08-08T12:46:35.959Z,32.16
2018-08-08T12:47:36.107Z,32.08
2018-08-08T12:48:36.284Z,32.08
2018-08-08T12:49:36.427Z,32.16
2018-08-08T12:50:36.565Z,32.19
2018-08-08T12:51:36.728Z,32.19
2018-08-08T12:52:36.879Z,32.28
2018-08-08T12:53:37.023Z,32.23
2018-08-08T12:54:37.175Z,32.20